sensor_id;sensor_type;location;lat;lon;timestamp;pressure;altitude;pressure_sealevel;temperature;humidity
51687;BME280;37774;52.192;4.584;2023-02-19T00:01:43;102487.06;;;6.59;100.00
51687;BME280;37774;52.192;4.584;2023-02-19T00:04:12;102548.41;;;6.89;100.00
51687;BME280;37774;52.192;4.584;2023-02-19T00:06:40;102821.94;;;8.71;100.00
51687;BME280;37774;52.192;4.584;2023-02-19T00:09:10;102814.06;;;8.68;100.00
51687;BME280;37774;52.192;4.584;2023-02-19T00:11:37;102665.00;;;7.71;100.00
51687;BME280;37774;52.192;4.584;2023-02-19T00:14:04;102422.97;;;6.47;100.00
51687;BME280;37774;52.192;4.584;2023-02-19T00:16:33;102729.13;;;8.32;100.00
51687;BME280;37774;52.192;4.584;2023-02-19T00:19:03;102413.16;;;6.38;100.00
51687;BME280;37774;52.192;4.584;2023-02-19T00:21:30;102441.91;;;6.73;100.00
51687;BME280;37774;52.192;4.584;2023-02-19T00:23:58;102771.75;;;8.68;100.00
51687;BME280;37774;52.192;4.584;2023-02-19T00:26:27;102630.09;;;7.86;100.00
51687;BME280;37774;52.192;4.584;2023-02-19T00:28:55;102780.25;;;8.64;100.00
51687;BME280;37774;52.192;4.584;2023-02-19T00:31:23;102663.50;;;8.04;100.00
51687;BME280;37774;52.192;4.584;2023-02-19T00:33:52;102419.38;;;6.43;100.00
51687;BME280;37774;52.192;4.584;2023-02-19T00:36:20;102772.03;;;8.50;100.00
51687;BME280;37774;52.192;4.584;2023-02-19T00:38:47;102395.91;;;6.37;100.00
51687;BME280;37774;52.192;4.584;2023-02-19T00:41:15;102787.03;;;8.60;100.00
51687;BME280;37774;52.192;4.584;2023-02-19T00:43:48;102467.00;;;6.52;100.00
51687;BME280;37774;52.192;4.584;2023-02-19T00:46:16;102755.88;;;8.32;100.00
51687;BME280;37774;52.192;4.584;2023-02-19T00:48:44;102741.72;;;8.21;100.00
51687;BME280;37774;52.192;4.584;2023-02-19T00:51:11;102560.66;;;7.19;100.00
51687;BME280;37774;52.192;4.584;2023-02-19T00:53:38;102673.94;;;7.81;100.00
51687;BME280;37774;52.192;4.584;2023-02-19T00:56:05;102793.50;;;8.47;100.00
51687;BME280;37774;52.192;4.584;2023-02-19T00:58:32;102752.97;;;8.22;100.00
51687;BME280;37774;52.192;4.584;2023-02-19T01:01:01;102716.50;;;7.89;100.00
51687;BME280;37774;52.192;4.584;2023-02-19T01:03:28;102739.34;;;8.01;100.00
51687;BME280;37774;52.192;4.584;2023-02-19T01:05:55;102531.50;;;6.73;100.00
51687;BME280;37774;52.192;4.584;2023-02-19T01:08:22;102809.94;;;8.47;100.00
51687;BME280;37774;52.192;4.584;2023-02-19T01:10:49;102690.06;;;7.72;100.00
51687;BME280;37774;52.192;4.584;2023-02-19T01:13:16;102809.88;;;8.46;100.00
51687;BME280;37774;52.192;4.584;2023-02-19T01:15:43;102639.34;;;7.52;100.00
51687;BME280;37774;52.192;4.584;2023-02-19T01:18:12;102506.50;;;6.73;100.00
51687;BME280;37774;52.192;4.584;2023-02-19T01:20:39;102592.81;;;7.27;100.00
51687;BME280;37774;52.192;4.584;2023-02-19T01:23:07;102676.75;;;7.62;100.00
51687;BME280;37774;52.192;4.584;2023-02-19T01:25:34;102659.00;;;7.72;100.00
51687;BME280;37774;52.192;4.584;2023-02-19T01:28:00;102825.78;;;8.55;100.00
51687;BME280;37774;52.192;4.584;2023-02-19T01:30:27;102828.31;;;8.54;100.00
51687;BME280;37774;52.192;4.584;2023-02-19T01:32:54;102785.88;;;8.50;100.00
51687;BME280;37774;52.192;4.584;2023-02-19T01:35:23;102450.91;;;6.59;100.00
51687;BME280;37774;52.192;4.584;2023-02-19T01:37:50;102646.72;;;7.67;100.00
51687;BME280;37774;52.192;4.584;2023-02-19T01:40:17;102780.00;;;8.56;100.00
51687;BME280;37774;52.192;4.584;2023-02-19T01:42:44;102801.44;;;8.50;100.00
51687;BME280;37774;52.192;4.584;2023-02-19T01:45:20;102596.94;;;7.22;100.00
51687;BME280;37774;52.192;4.584;2023-02-19T01:47:50;102528.41;;;6.83;100.00
51687;BME280;37774;52.192;4.584;2023-02-19T01:50:19;102786.03;;;8.30;100.00
51687;BME280;37774;52.192;4.584;2023-02-19T01:52:47;102764.47;;;8.04;100.00
51687;BME280;37774;52.192;4.584;2023-02-19T01:55:14;102389.31;;;5.74;100.00
51687;BME280;37774;52.192;4.584;2023-02-19T01:57:44;102626.63;;;7.08;100.00
51687;BME280;37774;52.192;4.584;2023-02-19T02:00:14;102867.13;;;8.28;100.00
51687;BME280;37774;52.192;4.584;2023-02-19T02:02:45;102577.66;;;6.64;100.00
51687;BME280;37774;52.192;4.584;2023-02-19T02:05:18;102858.97;;;8.17;100.00
51687;BME280;37774;52.192;4.584;2023-02-19T02:07:51;102486.91;;;5.84;100.00
51687;BME280;37774;52.192;4.584;2023-02-19T02:10:35;102760.97;;;7.53;100.00
51687;BME280;37774;52.192;4.584;2023-02-19T02:13:02;102894.00;;;8.31;100.00
51687;BME280;37774;52.192;4.584;2023-02-19T02:15:35;102756.69;;;7.29;100.00
51687;BME280;37774;52.192;4.584;2023-02-19T02:18:12;102443.25;;;5.45;100.00
51687;BME280;37774;52.192;4.584;2023-02-19T02:20:57;102769.47;;;7.49;100.00
51687;BME280;37774;52.192;4.584;2023-02-19T02:23:39;102812.53;;;7.71;100.00
51687;BME280;37774;52.192;4.584;2023-02-19T02:26:30;102904.94;;;8.23;100.00
51687;BME280;37774;52.192;4.584;2023-02-19T02:29:34;102912.63;;;8.19;100.00
51687;BME280;37774;52.192;4.584;2023-02-19T02:32:08;102792.06;;;7.30;100.00
51687;BME280;37774;52.192;4.584;2023-02-19T02:34:41;102885.25;;;8.02;100.00
51687;BME280;37774;52.192;4.584;2023-02-19T02:37:12;102721.44;;;7.09;100.00
51687;BME280;37774;52.192;4.584;2023-02-19T02:39:41;102922.03;;;8.17;100.00
51687;BME280;37774;52.192;4.584;2023-02-19T02:42:08;102911.69;;;8.17;100.00
51687;BME280;37774;52.192;4.584;2023-02-19T02:44:53;102911.81;;;8.22;100.00
51687;BME280;37774;52.192;4.584;2023-02-19T02:47:42;102629.16;;;6.59;100.00
51687;BME280;37774;52.192;4.584;2023-02-19T02:50:13;102596.13;;;6.50;100.00
51687;BME280;37774;52.192;4.584;2023-02-19T02:52:43;102906.94;;;8.30;100.00
51687;BME280;37774;52.192;4.584;2023-02-19T02:55:30;102883.63;;;8.30;100.00
51687;BME280;37774;52.192;4.584;2023-02-19T02:58:00;102873.97;;;8.26;100.00
51687;BME280;37774;52.192;4.584;2023-02-19T03:00:28;102577.22;;;6.51;100.00
51687;BME280;37774;52.192;4.584;2023-02-19T03:03:23;102664.00;;;7.18;100.00
51687;BME280;37774;52.192;4.584;2023-02-19T03:05:54;102852.78;;;8.38;100.00
51687;BME280;37774;52.192;4.584;2023-02-19T03:08:27;102634.25;;;7.05;100.00
51687;BME280;37774;52.192;4.584;2023-02-19T03:10:59;102833.88;;;8.14;100.00
51687;BME280;37774;52.192;4.584;2023-02-19T03:13:49;102627.19;;;6.76;100.00
51687;BME280;37774;52.192;4.584;2023-02-19T03:16:39;102885.72;;;8.42;100.00
51687;BME280;37774;52.192;4.584;2023-02-19T03:19:27;102817.03;;;8.01;100.00
51687;BME280;37774;52.192;4.584;2023-02-19T03:21:59;102887.34;;;8.38;100.00
51687;BME280;37774;52.192;4.584;2023-02-19T03:24:29;102845.09;;;8.15;100.00
51687;BME280;37774;52.192;4.584;2023-02-19T03:27:16;102857.78;;;8.07;100.00
51687;BME280;37774;52.192;4.584;2023-02-19T03:29:45;102875.41;;;8.17;100.00
51687;BME280;37774;52.192;4.584;2023-02-19T03:32:17;102903.56;;;8.32;100.00
51687;BME280;37774;52.192;4.584;2023-02-19T03:34:51;102930.28;;;8.31;100.00
51687;BME280;37774;52.192;4.584;2023-02-19T03:37:24;102898.38;;;8.32;100.00
51687;BME280;37774;52.192;4.584;2023-02-19T03:39:53;102896.03;;;8.14;100.00
51687;BME280;37774;52.192;4.584;2023-02-19T03:42:30;102872.13;;;7.97;100.00
51687;BME280;37774;52.192;4.584;2023-02-19T03:45:22;102920.75;;;8.30;100.00
51687;BME280;37774;52.192;4.584;2023-02-19T03:47:53;102903.34;;;8.26;100.00
51687;BME280;37774;52.192;4.584;2023-02-19T03:50:28;102890.25;;;8.22;100.00
51687;BME280;37774;52.192;4.584;2023-02-19T03:53:02;102507.84;;;5.92;100.00
51687;BME280;37774;52.192;4.584;2023-02-19T03:55:38;102532.88;;;5.95;100.00
51687;BME280;37774;52.192;4.584;2023-02-19T03:58:13;102476.66;;;5.65;100.00
51687;BME280;37774;52.192;4.584;2023-02-19T04:00:46;102905.16;;;8.04;100.00
51687;BME280;37774;52.192;4.584;2023-02-19T04:03:30;102764.69;;;7.13;100.00
51687;BME280;37774;52.192;4.584;2023-02-19T04:06:07;102991.91;;;8.16;100.00
51687;BME280;37774;52.192;4.584;2023-02-19T04:08:38;102625.91;;;5.98;100.00
51687;BME280;37774;52.192;4.584;2023-02-19T04:11:08;102876.47;;;7.51;100.00
51687;BME280;37774;52.192;4.584;2023-02-19T04:13:42;102944.91;;;8.05;100.00
51687;BME280;37774;52.192;4.584;2023-02-19T04:16:13;102929.69;;;7.67;100.00
51687;BME280;37774;52.192;4.584;2023-02-19T04:18:44;102666.06;;;6.34;100.00
51687;BME280;37774;52.192;4.584;2023-02-19T04:21:14;102561.75;;;5.63;100.00
51687;BME280;37774;52.192;4.584;2023-02-19T04:23:43;102950.59;;;7.96;100.00
51687;BME280;37774;52.192;4.584;2023-02-19T04:26:12;103003.97;;;8.15;100.00
51687;BME280;37774;52.192;4.584;2023-02-19T04:28:40;102708.00;;;6.49;100.00
51687;BME280;37774;52.192;4.584;2023-02-19T04:31:09;102762.78;;;6.86;100.00
51687;BME280;37774;52.192;4.584;2023-02-19T04:33:36;102953.13;;;8.17;100.00
51687;BME280;37774;52.192;4.584;2023-02-19T04:36:04;102849.72;;;7.51;100.00
51687;BME280;37774;52.192;4.584;2023-02-19T04:38:32;102915.16;;;7.71;100.00
51687;BME280;37774;52.192;4.584;2023-02-19T04:40:59;102784.66;;;7.17;100.00
51687;BME280;37774;52.192;4.584;2023-02-19T04:43:26;102847.38;;;7.57;100.00
51687;BME280;37774;52.192;4.584;2023-02-19T04:45:53;102534.72;;;5.76;100.00
51687;BME280;37774;52.192;4.584;2023-02-19T04:48:20;102657.53;;;6.57;100.00
51687;BME280;37774;52.192;4.584;2023-02-19T04:50:46;102463.63;;;5.39;100.00
51687;BME280;37774;52.192;4.584;2023-02-19T04:53:13;102413.19;;;5.02;100.00
51687;BME280;37774;52.192;4.584;2023-02-19T04:55:42;102693.69;;;6.80;100.00
51687;BME280;37774;52.192;4.584;2023-02-19T04:58:09;102456.59;;;5.35;100.00
51687;BME280;37774;52.192;4.584;2023-02-19T05:00:36;102543.34;;;5.77;100.00
51687;BME280;37774;52.192;4.584;2023-02-19T05:03:03;102792.59;;;7.44;100.00
51687;BME280;37774;52.192;4.584;2023-02-19T05:05:30;102667.50;;;6.71;100.00
51687;BME280;37774;52.192;4.584;2023-02-19T05:07:56;102915.13;;;8.18;100.00
51687;BME280;37774;52.192;4.584;2023-02-19T05:10:23;102893.72;;;7.98;100.00
51687;BME280;37774;52.192;4.584;2023-02-19T05:12:53;102899.88;;;8.01;100.00
51687;BME280;37774;52.192;4.584;2023-02-19T05:15:21;102437.72;;;5.15;100.00
51687;BME280;37774;52.192;4.584;2023-02-19T05:17:48;102546.50;;;5.69;100.00
51687;BME280;37774;52.192;4.584;2023-02-19T05:20:14;102735.50;;;6.93;100.00
51687;BME280;37774;52.192;4.584;2023-02-19T05:22:41;102716.94;;;6.80;100.00
51687;BME280;37774;52.192;4.584;2023-02-19T05:25:08;102537.38;;;5.56;100.00
51687;BME280;37774;52.192;4.584;2023-02-19T05:27:35;102429.84;;;5.10;100.00
51687;BME280;37774;52.192;4.584;2023-02-19T05:30:03;102875.28;;;7.66;100.00
51687;BME280;37774;52.192;4.584;2023-02-19T05:32:30;102880.91;;;7.78;100.00
51687;BME280;37774;52.192;4.584;2023-02-19T05:34:57;102356.13;;;4.71;100.00
51687;BME280;37774;52.192;4.584;2023-02-19T05:37:24;102920.66;;;8.03;100.00
51687;BME280;37774;52.192;4.584;2023-02-19T05:39:51;102944.69;;;7.99;100.00
51687;BME280;37774;52.192;4.584;2023-02-19T05:42:17;102501.00;;;5.28;100.00
51687;BME280;37774;52.192;4.584;2023-02-19T05:44:44;102934.75;;;7.87;100.00
51687;BME280;37774;52.192;4.584;2023-02-19T05:47:12;102937.16;;;7.59;100.00
51687;BME280;37774;52.192;4.584;2023-02-19T05:49:39;102639.03;;;5.62;100.00
51687;BME280;37774;52.192;4.584;2023-02-19T05:52:06;102937.38;;;7.43;100.00
51687;BME280;37774;52.192;4.584;2023-02-19T05:54:33;102796.06;;;6.55;100.00
51687;BME280;37774;52.192;4.584;2023-02-19T05:57:00;102745.09;;;6.09;100.00
51687;BME280;37774;52.192;4.584;2023-02-19T05:59:27;102940.41;;;7.10;100.00
51687;BME280;37774;52.192;4.584;2023-02-19T06:01:54;102700.84;;;5.39;100.00
51687;BME280;37774;52.192;4.584;2023-02-19T06:04:24;103002.56;;;7.13;100.00
51687;BME280;37774;52.192;4.584;2023-02-19T06:06:50;103085.63;;;7.84;100.00
51687;BME280;37774;52.192;4.584;2023-02-19T06:09:20;103050.16;;;7.59;100.00
51687;BME280;37774;52.192;4.584;2023-02-19T06:11:47;102876.88;;;6.53;100.00
51687;BME280;37774;52.192;4.584;2023-02-19T06:14:14;102699.16;;;5.39;100.00
51687;BME280;37774;52.192;4.584;2023-02-19T06:16:40;102643.31;;;5.20;100.00
51687;BME280;37774;52.192;4.584;2023-02-19T06:19:08;103105.47;;;7.84;100.00
51687;BME280;37774;52.192;4.584;2023-02-19T06:21:36;102911.75;;;6.63;100.00
51687;BME280;37774;52.192;4.584;2023-02-19T06:24:04;102714.09;;;5.47;100.00
51687;BME280;37774;52.192;4.584;2023-02-19T06:26:32;103109.84;;;7.85;100.00
51687;BME280;37774;52.192;4.584;2023-02-19T06:28:59;102835.34;;;6.27;100.00
51687;BME280;37774;52.192;4.584;2023-02-19T06:31:26;103041.22;;;7.52;100.00
51687;BME280;37774;52.192;4.584;2023-02-19T06:33:53;103031.78;;;7.53;100.00
51687;BME280;37774;52.192;4.584;2023-02-19T06:36:21;103001.34;;;7.26;100.00
51687;BME280;37774;52.192;4.584;2023-02-19T06:38:50;102872.09;;;6.62;100.00
51687;BME280;37774;52.192;4.584;2023-02-19T06:41:17;102967.63;;;7.23;100.00
51687;BME280;37774;52.192;4.584;2023-02-19T06:43:44;102866.19;;;6.43;100.00
51687;BME280;37774;52.192;4.584;2023-02-19T06:46:11;102694.72;;;5.56;100.00
51687;BME280;37774;52.192;4.584;2023-02-19T06:48:39;102768.41;;;5.71;100.00
51687;BME280;37774;52.192;4.584;2023-02-19T06:51:10;102754.66;;;5.70;100.00
51687;BME280;37774;52.192;4.584;2023-02-19T06:53:37;103106.78;;;7.74;100.00
51687;BME280;37774;52.192;4.584;2023-02-19T06:56:20;102711.84;;;5.15;100.00
51687;BME280;37774;52.192;4.584;2023-02-19T06:58:47;102792.94;;;5.61;100.00
51687;BME280;37774;52.192;4.584;2023-02-19T07:01:14;103142.53;;;7.62;100.00
51687;BME280;37774;52.192;4.584;2023-02-19T07:03:42;103044.38;;;7.03;100.00
51687;BME280;37774;52.192;4.584;2023-02-19T07:06:09;102744.13;;;4.89;100.00
51687;BME280;37774;52.192;4.584;2023-02-19T07:08:36;102961.25;;;6.33;100.00
51687;BME280;37774;52.192;4.584;2023-02-19T07:11:03;102966.38;;;6.31;100.00
51687;BME280;37774;52.192;4.584;2023-02-19T07:13:32;103205.72;;;7.67;100.00
51687;BME280;37774;52.192;4.584;2023-02-19T07:16:01;103200.22;;;7.59;100.00
51687;BME280;37774;52.192;4.584;2023-02-19T07:18:28;102979.81;;;6.24;100.00
51687;BME280;37774;52.192;4.584;2023-02-19T07:21:01;103020.19;;;6.41;100.00
51687;BME280;37774;52.192;4.584;2023-02-19T07:23:28;102964.97;;;6.00;100.00
51687;BME280;37774;52.192;4.584;2023-02-19T07:25:55;103224.34;;;7.58;100.00
51687;BME280;37774;52.192;4.584;2023-02-19T07:28:22;102975.59;;;5.88;100.00
51687;BME280;37774;52.192;4.584;2023-02-19T07:30:51;102804.13;;;4.86;100.00
51687;BME280;37774;52.192;4.584;2023-02-19T07:33:18;103258.03;;;7.40;100.00
51687;BME280;37774;52.192;4.584;2023-02-19T07:35:45;103304.69;;;7.61;100.00
51687;BME280;37774;52.192;4.584;2023-02-19T07:38:14;102844.75;;;4.92;100.00
51687;BME280;37774;52.192;4.584;2023-02-19T07:40:41;102852.19;;;4.86;100.00
51687;BME280;37774;52.192;4.584;2023-02-19T07:43:08;103110.25;;;6.16;100.00
51687;BME280;37774;52.192;4.584;2023-02-19T07:45:35;102975.13;;;5.41;100.00
51687;BME280;37774;52.192;4.584;2023-02-19T07:48:03;103166.16;;;6.51;100.00
51687;BME280;37774;52.192;4.584;2023-02-19T07:50:30;102975.34;;;5.28;100.00
51687;BME280;37774;52.192;4.584;2023-02-19T07:52:57;103347.66;;;7.57;100.00
51687;BME280;37774;52.192;4.584;2023-02-19T07:55:24;103332.34;;;7.42;100.00
51687;BME280;37774;52.192;4.584;2023-02-19T07:57:51;103387.00;;;7.50;100.00
51687;BME280;37774;52.192;4.584;2023-02-19T08:00:18;103369.53;;;7.64;100.00
51687;BME280;37774;52.192;4.584;2023-02-19T08:02:45;103163.81;;;6.20;100.00
51687;BME280;37774;52.192;4.584;2023-02-19T08:05:30;103399.00;;;7.68;100.00
51687;BME280;37774;52.192;4.584;2023-02-19T08:07:57;103384.25;;;7.65;100.00
51687;BME280;37774;52.192;4.584;2023-02-19T08:10:24;103292.38;;;7.18;100.00
51687;BME280;37774;52.192;4.584;2023-02-19T08:13:06;103329.06;;;7.47;100.00
51687;BME280;37774;52.192;4.584;2023-02-19T08:15:52;103365.63;;;7.74;100.00
51687;BME280;37774;52.192;4.584;2023-02-19T08:18:21;103357.94;;;7.75;100.00
51687;BME280;37774;52.192;4.584;2023-02-19T08:20:49;103362.91;;;7.71;100.00
51687;BME280;37774;52.192;4.584;2023-02-19T08:23:17;103361.22;;;7.71;100.00
51687;BME280;37774;52.192;4.584;2023-02-19T08:25:45;103357.94;;;7.75;100.00
51687;BME280;37774;52.192;4.584;2023-02-19T08:28:12;103139.66;;;6.37;100.00
51687;BME280;37774;52.192;4.584;2023-02-19T08:30:40;103385.38;;;7.72;100.00
51687;BME280;37774;52.192;4.584;2023-02-19T08:33:09;103199.25;;;6.78;100.00
51687;BME280;37774;52.192;4.584;2023-02-19T08:35:37;103133.50;;;6.16;100.00
51687;BME280;37774;52.192;4.584;2023-02-19T08:38:07;103373.41;;;7.74;100.00
51687;BME280;37774;52.192;4.584;2023-02-19T08:40:36;103378.94;;;7.82;100.00
51687;BME280;37774;52.192;4.584;2023-02-19T08:43:04;103377.63;;;7.92;100.00
51687;BME280;37774;52.192;4.584;2023-02-19T08:45:32;103211.94;;;6.92;100.00
51687;BME280;37774;52.192;4.584;2023-02-19T08:47:59;102935.47;;;5.39;100.00
51687;BME280;37774;52.192;4.584;2023-02-19T08:50:26;103356.72;;;7.87;100.00
51687;BME280;37774;52.192;4.584;2023-02-19T08:52:53;103190.84;;;7.02;100.00
51687;BME280;37774;52.192;4.584;2023-02-19T08:55:21;103216.25;;;7.11;100.00
51687;BME280;37774;52.192;4.584;2023-02-19T08:57:48;103275.97;;;7.55;100.00
51687;BME280;37774;52.192;4.584;2023-02-19T09:00:16;103069.91;;;6.18;100.00
51687;BME280;37774;52.192;4.584;2023-02-19T09:02:43;102949.47;;;5.44;100.00
51687;BME280;37774;52.192;4.584;2023-02-19T09:05:10;103047.06;;;6.07;100.00
51687;BME280;37774;52.192;4.584;2023-02-19T09:07:38;103267.97;;;7.50;100.00
51687;BME280;37774;52.192;4.584;2023-02-19T09:10:06;102869.69;;;5.29;100.00
51687;BME280;37774;52.192;4.584;2023-02-19T09:12:34;102956.22;;;5.78;100.00
51687;BME280;37774;52.192;4.584;2023-02-19T09:15:03;103295.06;;;7.78;100.00
51687;BME280;37774;52.192;4.584;2023-02-19T09:17:30;103104.22;;;6.72;100.00
51687;BME280;37774;52.192;4.584;2023-02-19T09:19:57;102994.75;;;6.11;100.00
51687;BME280;37774;52.192;4.584;2023-02-19T09:22:24;103302.19;;;8.03;100.00
51687;BME280;37774;52.192;4.584;2023-02-19T09:24:51;102901.16;;;5.40;100.00
51687;BME280;37774;52.192;4.584;2023-02-19T09:27:19;103295.56;;;7.69;100.00
51687;BME280;37774;52.192;4.584;2023-02-19T09:29:47;103330.28;;;7.74;100.00
51687;BME280;37774;52.192;4.584;2023-02-19T09:32:14;103037.22;;;6.18;100.00
51687;BME280;37774;52.192;4.584;2023-02-19T09:34:41;103176.69;;;6.94;100.00
51687;BME280;37774;52.192;4.584;2023-02-19T09:37:08;103298.88;;;7.67;100.00
51687;BME280;37774;52.192;4.584;2023-02-19T09:39:35;103236.94;;;7.50;100.00
51687;BME280;37774;52.192;4.584;2023-02-19T09:42:03;103079.19;;;6.52;100.00
51687;BME280;37774;52.192;4.584;2023-02-19T09:44:38;103329.03;;;8.06;100.00
51687;BME280;37774;52.192;4.584;2023-02-19T09:47:14;103183.56;;;7.33;100.00
51687;BME280;37774;52.192;4.584;2023-02-19T09:49:43;102844.38;;;5.20;100.00
51687;BME280;37774;52.192;4.584;2023-02-19T09:52:18;103277.34;;;7.87;100.00
51687;BME280;37774;52.192;4.584;2023-02-19T09:54:49;103168.06;;;7.13;100.00
51687;BME280;37774;52.192;4.584;2023-02-19T09:57:22;103361.84;;;8.05;100.00
51687;BME280;37774;52.192;4.584;2023-02-19T09:59:52;103009.78;;;6.20;100.00
51687;BME280;37774;52.192;4.584;2023-02-19T10:02:24;103304.78;;;8.03;100.00
51687;BME280;37774;52.192;4.584;2023-02-19T10:04:52;103280.34;;;7.77;100.00
51687;BME280;37774;52.192;4.584;2023-02-19T10:07:22;103129.16;;;6.90;100.00
51687;BME280;37774;52.192;4.584;2023-02-19T10:09:52;103321.91;;;8.00;100.00
51687;BME280;37774;52.192;4.584;2023-02-19T10:12:24;103019.69;;;6.31;100.00
51687;BME280;37774;52.192;4.584;2023-02-19T10:14:55;103039.84;;;6.38;100.00
51687;BME280;37774;52.192;4.584;2023-02-19T10:17:29;103167.03;;;7.09;100.00
51687;BME280;37774;52.192;4.584;2023-02-19T10:19:59;103372.66;;;7.96;100.00
51687;BME280;37774;52.192;4.584;2023-02-19T10:22:28;103329.47;;;7.75;100.00
51687;BME280;37774;52.192;4.584;2023-02-19T10:24:55;103233.81;;;6.80;100.00
51687;BME280;37774;52.192;4.584;2023-02-19T10:27:25;103168.50;;;6.47;100.00
51687;BME280;37774;52.192;4.584;2023-02-19T10:29:52;103346.94;;;7.42;100.00
51687;BME280;37774;52.192;4.584;2023-02-19T10:32:20;103421.38;;;7.85;100.00
51687;BME280;37774;52.192;4.584;2023-02-19T10:35:06;103116.00;;;6.10;100.00
51687;BME280;37774;52.192;4.584;2023-02-19T10:37:34;103279.38;;;6.96;100.00
51687;BME280;37774;52.192;4.584;2023-02-19T10:40:02;103425.00;;;7.51;100.00
51687;BME280;37774;52.192;4.584;2023-02-19T10:42:29;103221.47;;;6.37;100.00
51687;BME280;37774;52.192;4.584;2023-02-19T10:44:58;103435.66;;;7.77;100.00
51687;BME280;37774;52.192;4.584;2023-02-19T10:47:28;103033.56;;;5.40;100.00
51687;BME280;37774;52.192;4.584;2023-02-19T10:49:59;103425.56;;;7.64;100.00
51687;BME280;37774;52.192;4.584;2023-02-19T10:52:27;103418.34;;;7.76;100.00
51687;BME280;37774;52.192;4.584;2023-02-19T10:55:13;103320.13;;;7.40;100.00
51687;BME280;37774;52.192;4.584;2023-02-19T10:57:40;103043.72;;;5.92;100.00
51687;BME280;37774;52.192;4.584;2023-02-19T11:00:19;103264.97;;;7.41;100.00
51687;BME280;37774;52.192;4.584;2023-02-19T11:02:48;102989.25;;;5.85;100.00
51687;BME280;37774;52.192;4.584;2023-02-19T11:05:20;103229.22;;;7.12;100.00
51687;BME280;37774;52.192;4.584;2023-02-19T11:07:50;103434.72;;;8.54;100.00
51687;BME280;37774;52.192;4.584;2023-02-19T11:10:23;103088.25;;;6.81;100.00
51687;BME280;37774;52.192;4.584;2023-02-19T11:12:52;103258.09;;;7.81;100.00
51687;BME280;37774;52.192;4.584;2023-02-19T11:15:21;103334.44;;;8.51;100.00
51687;BME280;37774;52.192;4.584;2023-02-19T11:18:03;102999.94;;;6.51;100.00
51687;BME280;37774;52.192;4.584;2023-02-19T11:20:31;103239.91;;;8.00;100.00
51687;BME280;37774;52.192;4.584;2023-02-19T11:23:02;103317.06;;;8.71;100.00
51687;BME280;37774;52.192;4.584;2023-02-19T11:25:30;103103.97;;;7.47;100.00
51687;BME280;37774;52.192;4.584;2023-02-19T11:28:00;103209.41;;;8.14;100.00
51687;BME280;37774;52.192;4.584;2023-02-19T11:30:37;103266.13;;;8.72;100.00
51687;BME280;37774;52.192;4.584;2023-02-19T11:33:24;103050.50;;;7.47;100.00
51687;BME280;37774;52.192;4.584;2023-02-19T11:35:58;103174.69;;;8.32;100.00
51687;BME280;37774;52.192;4.584;2023-02-19T11:38:37;102922.78;;;7.01;100.00
51687;BME280;37774;52.192;4.584;2023-02-19T11:41:10;103085.03;;;8.13;100.00
51687;BME280;37774;52.192;4.584;2023-02-19T11:43:52;103095.56;;;8.40;100.00
51687;BME280;37774;52.192;4.584;2023-02-19T11:46:30;103099.47;;;8.52;100.00
51687;BME280;37774;52.192;4.584;2023-02-19T11:49:10;102823.22;;;7.11;100.00
51687;BME280;37774;52.192;4.584;2023-02-19T11:52:01;103133.38;;;9.05;100.00
51687;BME280;37774;52.192;4.584;2023-02-19T11:54:49;103113.56;;;8.83;100.00
51687;BME280;37774;52.192;4.584;2023-02-19T11:57:25;103149.72;;;8.80;100.00
51687;BME280;37774;52.192;4.584;2023-02-19T12:00:00;102934.16;;;7.71;100.00
51687;BME280;37774;52.192;4.584;2023-02-19T12:02:46;102816.44;;;7.14;100.00
51687;BME280;37774;52.192;4.584;2023-02-19T12:05:28;102942.66;;;8.14;100.00
51687;BME280;37774;52.192;4.584;2023-02-19T12:08:21;103077.66;;;9.19;100.00
51687;BME280;37774;52.192;4.584;2023-02-19T12:14:11;102932.28;;;8.63;100.00
51687;BME280;37774;52.192;4.584;2023-02-19T12:16:44;102885.19;;;8.49;100.00
51687;BME280;37774;52.192;4.584;2023-02-19T12:19:23;102946.16;;;8.65;100.00
51687;BME280;37774;52.192;4.584;2023-02-19T12:22:03;102516.63;;;5.97;100.00
51687;BME280;37774;52.192;4.584;2023-02-19T12:24:51;102899.19;;;8.31;100.00
51687;BME280;37774;52.192;4.584;2023-02-19T12:27:34;102518.03;;;6.10;100.00
51687;BME280;37774;52.192;4.584;2023-02-19T12:30:24;102988.09;;;9.03;100.00
51687;BME280;37774;52.192;4.584;2023-02-19T12:33:15;102724.81;;;7.30;100.00
51687;BME280;37774;52.192;4.584;2023-02-19T12:35:55;102847.25;;;8.02;100.00
51687;BME280;37774;52.192;4.584;2023-02-19T12:38:29;102939.31;;;8.67;100.00
51687;BME280;37774;52.192;4.584;2023-02-19T12:41:18;102647.91;;;7.00;100.00
51687;BME280;37774;52.192;4.584;2023-02-19T12:43:51;102696.19;;;7.26;100.00
51687;BME280;37774;52.192;4.584;2023-02-19T12:46:23;102967.63;;;9.13;100.00
51687;BME280;37774;52.192;4.584;2023-02-19T12:49:13;102468.31;;;5.93;100.00
51687;BME280;37774;52.192;4.584;2023-02-19T12:51:48;102876.59;;;8.52;100.00
51687;BME280;37774;52.192;4.584;2023-02-19T12:54:22;102656.44;;;7.22;100.00
51687;BME280;37774;52.192;4.584;2023-02-19T12:57:24;102642.91;;;7.55;100.00
51687;BME280;37774;52.192;4.584;2023-02-19T13:03:11;102905.09;;;9.03;100.00
51687;BME280;37774;52.192;4.584;2023-02-19T13:05:49;102874.28;;;8.59;100.00
51687;BME280;37774;52.192;4.584;2023-02-19T13:08:25;102847.44;;;8.33;100.00
51687;BME280;37774;52.192;4.584;2023-02-19T13:10:55;102942.00;;;8.96;100.00
51687;BME280;37774;52.192;4.584;2023-02-19T13:13:27;102907.25;;;8.64;100.00
51687;BME280;37774;52.192;4.584;2023-02-19T13:15:59;102864.97;;;8.40;100.00
51687;BME280;37774;52.192;4.584;2023-02-19T13:18:30;102469.25;;;6.18;100.00